KIPT

Williamsport Regional Airport

Williamsport, Pennsylvania, USA
METAR KIPT 230554Z AUTO 00000KT 10SM OVC080 07/03 A3005 RMK AO2 SLP179 T00720028 10089 20044 58014
Observed Flight Rules
Oct-23 @ 05:54 UTC (13 minutes ago) Visual Flight Rules
Visibility Clouds
10 miles
  • Overcast at 8,000' AGL
Temperatures Readings
Current 7°C / 45°F
Dewpoint 3°C / 37°F
Humidity 76%
Altimeter 30.05" Hg
Pressure 1017.9 hPa
Elevation 164
METAR KIPT 230554Z AUTO 00000KT 10SM OVC080 07/03 A3005 RMK AO2 SLP179 T00720028 10089 20044 58014
Observed Flight Rules
Oct-23 @ 05:54 UTC
(13 minutes ago)
VFR
Clouds
  • Overcast at 8,000' AGL
Temperature Dewpoint
7°C / 45°F 3°C / 37°F
Humidity Altimeter Pressure
76% 30.05" Hg 1017.9 hPa